Time;durP1;ratioP1;P1;durP2;ratioP2;P2;SDS_P1;SDS_P2;PMS_P1;PMS_P2;Temp;Humidity;BMP_temperature;BMP_pressure;BME280_temperature;BME280_humidity;BME280_pressure;Samples;Min_cycle;Max_cycle;Signal;HPM_P1;HPM_P2
2023/12/19 00:02:04;;;;;;;311.92;20.15;;;4.10;76.10;;;-1.21;100.00;96886.50;4936260;28;20110;-55
2023/12/19 00:04:36;;;;;;;267.67;18.30;;;4.10;76.10;;;-1.25;100.00;96878.16;4932603;29;20122;-57
2023/12/19 00:07:01;;;;;;;388.10;25.23;;;4.10;76.10;;;-1.23;100.00;96877.97;4933388;29;20033;-53
2023/12/19 00:09:27;;;;;;;250.80;18.38;;;4.10;76.20;;;-1.27;100.00;96874.06;4932382;29;20113;-56
2023/12/19 00:11:53;;;;;;;301.95;19.90;;;4.10;76.20;;;-1.33;100.00;96859.00;4932567;29;20027;-52
2023/12/19 00:14:19;;;;;;;204.55;14.20;;;4.00;76.10;;;-1.29;100.00;96860.31;4930800;29;20046;-54
2023/12/19 00:16:45;;;;;;;459.25;25.70;;;4.00;76.10;;;-1.26;100.00;96858.19;4937548;29;20051;-53
2023/12/19 00:19:10;;;;;;;198.88;13.70;;;4.00;76.20;;;-1.26;100.00;96862.59;4932234;29;20027;-53
2023/12/19 00:21:36;;;;;;;457.55;25.27;;;4.00;76.20;;;-1.26;100.00;96858.19;4932619;29;20038;-53
2023/12/19 00:24:02;;;;;;;288.60;18.55;;;4.00;76.20;;;-1.27;100.00;96853.94;4932629;29;20019;-52
2023/12/19 00:26:28;;;;;;;127.25;13.80;;;4.00;76.30;;;-1.28;100.00;96854.13;4934742;29;20031;-53
2023/12/19 00:28:54;;;;;;;462.05;28.70;;;4.00;76.20;;;-1.25;100.00;96853.81;4932997;29;20035;-52
2023/12/19 00:31:21;;;;;;;439.38;28.00;;;4.00;76.30;;;-1.22;100.00;96853.50;4931943;29;20065;-55
2023/12/19 00:33:47;;;;;;;309.15;21.77;;;4.00;76.50;;;-1.21;100.00;96845.47;4932322;29;20023;-55
2023/12/19 00:36:23;;;;;;;253.57;18.80;;;4.00;76.50;;;-1.18;100.00;96842.53;4932523;29;20081;-53
2023/12/19 00:38:50;;;;;;;229.10;17.17;;;4.00;76.60;;;-1.18;100.00;96845.16;4931659;29;20019;-53
2023/12/19 00:41:17;;;;;;;219.50;18.50;;;4.00;76.60;;;-1.15;100.00;96853.66;4933160;29;20114;-53
2023/12/19 00:43:45;;;;;;;424.17;27.65;;;4.00;76.60;;;-1.21;100.00;96857.72;4931539;29;20030;-54
2023/12/19 00:46:12;;;;;;;400.08;24.08;;;4.10;76.70;;;-1.23;100.00;96870.13;4932817;29;20027;-55
2023/12/19 00:48:38;;;;;;;239.70;19.95;;;4.00;76.60;;;-1.19;100.00;96876.69;4932623;29;20877;-55
2023/12/19 00:51:11;;;;;;;350.75;22.45;;;4.00;76.60;;;-1.14;100.00;96881.44;4931862;29;20050;-52
2023/12/19 00:53:38;;;;;;;;;;;4.10;76.80;;;-1.19;100.00;96890.59;4932636;29;20023;-57
2023/12/19 00:56:09;;;;;;;235.82;17.80;;;4.10;76.70;;;-1.15;100.00;96885.03;4931637;29;19906;-54
2023/12/19 00:58:37;;;;;;;296.90;21.83;;;4.00;76.70;;;-1.17;100.00;96880.78;4932761;29;20121;-51
2023/12/19 01:01:07;;;;;;;342.90;22.25;;;4.10;76.70;;;-1.14;100.00;96878.81;4939358;28;20478;-55
2023/12/19 01:03:34;;;;;;;340.65;26.50;;;4.10;76.80;;;-1.11;100.00;96879.31;4935145;29;20034;-53
2023/12/19 01:06:03;;;;;;;536.30;34.05;;;4.10;76.80;;;-1.07;100.00;96875.41;4936221;29;20034;-53
2023/12/19 01:08:30;;;;;;;634.53;37.25;;;4.10;76.80;;;-1.02;100.00;96875.75;4935368;29;20071;-53
2023/12/19 01:10:56;;;;;;;261.95;19.70;;;4.20;76.90;;;-0.99;100.00;96869.38;4935129;29;20486;-56
2023/12/19 01:13:22;;;;;;;329.00;22.00;;;4.20;76.90;;;-0.98;100.00;96877.06;4932836;28;20034;-52
2023/12/19 01:15:49;;;;;;;466.73;28.98;;;4.20;76.90;;;-0.97;100.00;96881.34;4939921;28;20162;-56
2023/12/19 01:18:15;;;;;;;410.85;30.55;;;4.20;76.80;;;-1.00;100.00;96873.81;4935915;28;20042;-56
2023/12/19 01:20:41;;;;;;;676.45;41.20;;;4.20;76.80;;;-0.98;100.00;96874.44;4934930;29;20026;-54
2023/12/19 01:23:06;;;;;;;473.20;27.55;;;4.30;76.90;;;-0.97;100.00;96873.47;4935593;29;20034;-52
2023/12/19 01:25:33;;;;;;;599.45;36.17;;;4.30;76.90;;;-0.94;100.00;96864.47;4934381;29;20082;-53
2023/12/19 01:27:59;;;;;;;420.08;25.95;;;4.30;76.90;;;-0.95;100.00;96863.66;4936592;28;20427;-56
2023/12/19 01:30:24;;;;;;;699.75;39.83;;;4.30;76.90;;;-0.93;100.00;96851.25;4936152;29;20161;-55
2023/12/19 01:32:50;;;;;;;427.10;26.73;;;4.30;76.90;;;-0.89;100.00;96856.16;4934918;29;20363;-53
2023/12/19 01:35:16;;;;;;;369.05;22.88;;;4.30;76.90;;;-0.99;100.00;96856.31;4935489;28;20110;-53
2023/12/19 01:37:43;;;;;;;584.75;36.60;;;4.30;76.70;;;-0.99;100.00;96851.06;4934616;28;20026;-56
2023/12/19 01:40:09;;;;;;;448.85;24.98;;;4.30;76.70;;;-0.94;100.00;96843.53;4935656;29;20030;-56
2023/12/19 01:42:35;;;;;;;476.95;27.05;;;4.30;76.70;;;-0.90;100.00;96839.66;4935381;28;20090;-56
2023/12/19 01:45:13;;;;;;;670.88;38.13;;;4.30;76.80;;;-0.86;100.00;96827.06;4939346;28;20482;-54
2023/12/19 01:47:44;;;;;;;503.65;27.05;;;4.40;76.80;;;-0.91;100.00;96824.91;4935784;28;20027;-54
2023/12/19 01:50:17;;;;;;;1210.45;65.88;;;4.40;77.00;;;-0.89;100.00;96822.97;4934858;28;20363;-54
2023/12/19 01:52:53;;;;;;;479.15;28.85;;;4.30;76.80;;;-0.84;100.00;96820.69;4932369;28;20027;-53
2023/12/19 01:55:22;;;;;;;646.60;41.83;;;4.40;76.80;;;-0.89;100.00;96835.22;4934023;29;20031;-56
2023/12/19 01:57:49;;;;;;;606.35;40.92;;;4.40;76.80;;;-0.92;100.00;96838.97;4934419;29;20429;-54
2023/12/19 02:00:16;;;;;;;563.03;31.40;;;4.40;76.70;;;-0.95;100.00;96823.59;4950288;28;20026;-55
2023/12/19 02:02:43;;;;;;;486.45;28.58;;;4.30;76.70;;;-0.95;100.00;96821.00;4948967;28;20015;-55
2023/12/19 02:05:10;;;;;;;475.48;26.48;;;4.40;76.80;;;-0.98;100.00;96827.34;4934835;29;20034;-56
2023/12/19 02:07:36;;;;;;;603.30;35.08;;;4.30;76.70;;;-0.93;100.00;96824.28;4934340;29;20105;-55
2023/12/19 02:10:02;;;;;;;443.33;27.48;;;4.30;76.70;;;-0.91;100.00;96822.28;4934791;29;20122;-56
2023/12/19 02:12:28;;;;;;;670.42;42.65;;;4.40;76.80;;;-0.90;100.00;96823.94;4933544;28;20031;-53
2023/12/19 02:14:55;;;;;;;470.60;28.17;;;4.40;76.90;;;-0.86;100.00;96813.97;4934779;28;20130;-51
2023/12/19 02:17:21;;;;;;;419.45;26.65;;;4.40;76.90;;;-0.88;100.00;96805.47;4935517;28;20027;-50
2023/12/19 02:19:51;;;;;;;684.30;39.90;;;4.40;76.90;;;-0.88;100.00;96808.88;4933485;28;21207;-52
2023/12/19 02:22:18;;;;;;;738.47;42.15;;;4.40;76.70;;;-0.88;100.00;96811.50;4934282;29;20033;-50
2023/12/19 02:24:45;;;;;;;584.42;33.75;;;4.40;77.50;;;-1.01;100.00;96814.59;4934448;29;20030;-50
2023/12/19 02:27:13;;;;;;;478.52;28.38;;;4.40;76.60;;;-0.99;100.00;96801.38;4933046;29;20058;-52
2023/12/19 02:29:38;;;;;;;486.02;27.75;;;4.40;76.60;;;-1.02;100.00;96796.47;4948902;28;20039;-51
2023/12/19 02:32:05;;;;;;;660.35;36.90;;;4.30;76.60;;;-1.00;100.00;96795.34;4932886;29;20031;-49
2023/12/19 02:34:31;;;;;;;630.45;36.92;;;4.30;76.60;;;-0.96;100.00;96794.03;4933991;28;20427;-51
2023/12/19 02:36:57;;;;;;;420.30;25.35;;;4.30;76.60;;;-0.91;100.00;96784.84;4933448;29;20023;-51
2023/12/19 02:39:23;;;;;;;373.25;24.05;;;4.30;76.80;;;-0.94;100.00;96792.06;4927060;29;20035;-51
2023/12/19 02:41:49;;;;;;;636.40;37.60;;;4.30;76.70;;;-1.10;100.00;96792.03;4933753;29;20082;-56
2023/12/19 02:44:15;;;;;;;457.02;29.40;;;4.30;76.70;;;-1.04;100.00;96796.63;4933013;29;20023;-49
2023/12/19 02:46:41;;;;;;;584.03;32.70;;;4.30;76.70;;;-1.00;100.00;96787.50;4933384;29;20030;-51
2023/12/19 02:49:07;;;;;;;554.58;32.28;;;4.30;76.70;;;-0.98;100.00;96785.50;4933613;29;20023;-52
2023/12/19 02:51:33;;;;;;;590.13;30.45;;;4.20;76.70;;;-1.03;100.00;96787.81;4932713;28;20541;-52
2023/12/19 02:53:59;;;;;;;721.17;41.63;;;4.20;76.70;;;-1.03;100.00;96768.69;4933601;28;20128;-49
2023/12/19 02:56:25;;;;;;;549.90;31.63;;;4.20;76.70;;;-1.03;100.00;96768.69;4930259;29;20030;-51
2023/12/19 02:58:51;;;;;;;416.85;24.25;;;4.20;76.70;;;-1.01;100.00;96770.13;4933622;29;20122;-52
2023/12/19 03:01:17;;;;;;;564.35;33.53;;;4.20;76.70;;;-1.05;100.00;96775.88;4935243;28;20045;-51
2023/12/19 03:03:44;;;;;;;384.80;24.73;;;4.20;76.80;;;-1.09;100.00;96770.16;4933493;29;20474;-49
2023/12/19 03:06:13;;;;;;;499.50;28.35;;;4.20;76.70;;;-1.11;100.00;96776.53;4932728;29;20023;-51
2023/12/19 03:08:46;;;;;;;678.35;38.42;;;4.20;76.70;;;-1.17;100.00;96778.78;4933299;28;20105;-52
2023/12/19 03:11:16;;;;;;;531.20;30.70;;;4.20;76.70;;;-1.13;100.00;96778.47;4933134;29;20027;-49
2023/12/19 03:13:42;;;;;;;752.20;42.08;;;4.20;76.70;;;-1.13;100.00;96781.09;4932223;29;20047;-55
2023/12/19 03:16:07;;;;;;;552.10;33.92;;;4.20;76.70;;;-1.13;100.00;96781.09;4935355;28;20133;-53
2023/12/19 03:18:33;;;;;;;455.65;30.60;;;4.20;77.50;;;-1.13;100.00;96789.75;4933137;29;20170;-49
2023/12/19 03:20:59;;;;;;;526.22;32.22;;;4.20;76.80;;;-1.15;100.00;96783.06;4932286;28;20026;-50
2023/12/19 03:23:27;;;;;;;422.98;26.27;;;4.20;76.80;;;-1.17;100.00;96762.28;4929667;29;20154;-50
2023/12/19 03:25:53;;;;;;;487.25;31.48;;;4.20;76.80;;;-1.15;100.00;96749.06;4931849;28;20035;-50
2023/12/19 03:28:18;;;;;;;791.13;47.42;;;4.10;76.70;;;-1.14;100.00;96748.06;4933057;28;20027;-53
2023/12/19 03:30:44;;;;;;;257.92;21.30;;;4.20;76.70;;;-1.14;100.00;96740.22;4933039;29;20379;-53
2023/12/19 03:33:10;;;;;;;329.42;23.63;;;4.10;76.70;;;-1.14;100.00;96745.47;4932063;29;20039;-52
2023/12/19 03:35:36;;;;;;;245.45;20.92;;;4.10;76.70;;;-1.11;100.00;96745.13;4932862;29;20035;-49
2023/12/19 03:38:02;;;;;;;482.75;33.88;;;4.10;76.70;;;-1.09;100.00;96737.97;4932040;29;20043;-52
2023/12/19 03:40:28;;;;;;;645.75;36.58;;;4.10;76.80;;;-1.12;100.00;96740.91;4932676;29;20046;-53
2023/12/19 03:42:54;;;;;;;246.38;21.85;;;4.10;76.80;;;-1.12;100.00;96736.47;4932940;29;20378;-54
2023/12/19 03:45:19;;;;;;;374.38;24.17;;;4.10;76.80;;;-1.12;100.00;96743.50;4931102;29;20030;-54
2023/12/19 03:47:45;;;;;;;307.10;23.80;;;4.20;76.90;;;-1.09;100.00;96730.94;4932753;29;20034;-51
2023/12/19 03:50:11;;;;;;;354.80;23.83;;;4.20;76.90;;;-1.06;100.00;96735.00;4932467;29;20037;-55
2023/12/19 03:52:38;;;;;;;333.40;24.38;;;4.20;76.80;;;-1.07;100.00;96731.56;4936194;28;20098;-56
2023/12/19 03:55:05;;;;;;;466.83;28.88;;;4.20;76.80;;;-1.02;100.00;96731.09;4932101;29;20031;-54
2023/12/19 03:57:31;;;;;;;281.92;22.45;;;4.20;76.70;;;-1.06;100.00;96722.75;4931963;29;20038;-55
2023/12/19 03:59:56;;;;;;;780.47;44.75;;;4.20;76.70;;;-1.09;100.00;96717.03;4931808;29;20395;-54
2023/12/19 04:02:22;;;;;;;532.70;32.30;;;4.20;76.70;;;-1.19;100.00;96712.78;4937690;28;20027;-54
2023/12/19 04:04:48;;;;;;;429.27;27.13;;;4.30;76.70;;;-1.12;100.00;96699.06;4932861;29;20129;-54
2023/12/19 04:07:14;;;;;;;368.73;25.75;;;4.20;76.60;;;-1.12;100.00;96702.47;4931123;29;20034;-56
2023/12/19 04:09:40;;;;;;;414.35;26.20;;;4.20;76.60;;;-1.11;100.00;96719.78;4932384;29;20691;-51
2023/12/19 04:12:07;;;;;;;500.15;29.55;;;4.20;76.60;;;-1.10;100.00;96715.38;4932382;29;20034;-50
2023/12/19 04:14:33;;;;;;;504.70;31.42;;;4.30;76.60;;;-1.19;100.00;96710.16;4930999;29;20098;-54
2023/12/19 04:17:00;;;;;;;321.60;23.08;;;4.20;76.50;;;-1.15;100.00;96707.22;4931550;29;20112;-54
2023/12/19 04:19:26;;;;;;;500.77;31.10;;;4.20;76.40;;;-1.17;100.00;96717.84;4923916;29;20049;-52
2023/12/19 04:21:52;;;;;;;269.80;19.77;;;4.20;76.40;;;-1.19;100.00;96714.59;4932392;29;20165;-55
2023/12/19 04:24:22;;;;;;;358.40;25.52;;;4.20;76.40;;;-1.19;100.00;96701.50;4932590;29;20027;-55
2023/12/19 04:26:48;;;;;;;289.45;25.17;;;4.20;76.40;;;-1.20;100.00;96705.91;4931117;29;20023;-54
2023/12/19 04:29:14;;;;;;;316.85;26.15;;;4.20;76.50;;;-1.23;100.00;96708.84;4932364;29;20041;-51
2023/12/19 04:31:41;;;;;;;247.18;19.63;;;4.20;76.50;;;-1.27;100.00;96711.97;4931086;29;20037;-56
2023/12/19 04:34:07;;;;;;;456.58;28.63;;;4.10;76.40;;;-1.30;100.00;96707.88;4933394;28;20023;-56
2023/12/19 04:36:34;;;;;;;418.48;26.85;;;4.10;76.40;;;-1.33;100.00;96710.81;4935732;29;20504;-53
2023/12/19 04:39:00;;;;;;;432.92;29.98;;;4.10;76.40;;;-1.31;100.00;96703.63;4935338;29;20030;-54
2023/12/19 04:41:26;;;;;;;688.53;42.47;;;4.10;76.40;;;-1.35;100.00;96698.88;4936096;29;20113;-52
2023/12/19 04:43:52;;;;;;;788.70;45.17;;;4.00;76.40;;;-1.31;100.00;96697.59;4935036;29;20177;-53
2023/12/19 04:46:18;;;;;;;519.15;32.78;;;4.00;76.50;;;-1.32;100.00;96693.31;4935332;29;20027;-55
2023/12/19 04:48:45;;;;;;;461.10;32.35;;;4.00;76.50;;;-1.33;100.00;96694.31;4934924;29;20034;-52
2023/12/19 04:51:22;;;;;;;542.42;32.35;;;4.00;76.50;;;-1.38;100.00;96696.56;4928749;29;20122;-54
2023/12/19 04:53:49;;;;;;;416.52;26.65;;;4.00;76.50;;;-1.39;100.00;96708.84;4936033;29;20022;-53
2023/12/19 04:56:16;;;;;;;533.40;34.55;;;4.00;76.50;;;-1.40;100.00;96704.59;4934454;29;20023;-52
2023/12/19 04:58:46;;;;;;;816.63;47.20;;;3.90;76.50;;;-1.35;100.00;96699.69;4935603;29;20102;-50
2023/12/19 05:01:12;;;;;;;550.42;30.75;;;3.90;76.50;;;-1.35;100.00;96704.91;4939805;28;20077;-52
2023/12/19 05:03:39;;;;;;;782.33;48.40;;;3.90;76.70;;;-1.41;100.00;96703.78;4935202;29;20026;-51
2023/12/19 05:06:10;;;;;;;481.88;28.35;;;3.90;76.70;;;-1.42;100.00;96701.31;4932716;29;20090;-54
2023/12/19 05:08:35;;;;;;;686.33;38.40;;;3.90;76.60;;;-1.40;100.00;96701.97;4934939;29;20043;-54
2023/12/19 05:11:01;;;;;;;514.85;28.77;;;3.90;76.60;;;-1.41;100.00;96700.31;4935615;29;20134;-52
2023/12/19 05:13:27;;;;;;;626.45;37.97;;;3.90;76.60;;;-1.37;100.00;96700.84;4934533;28;20034;-50
2023/12/19 05:15:53;;;;;;;465.85;29.55;;;3.90;76.70;;;-1.42;100.00;96693.47;4934788;29;20121;-56
2023/12/19 05:18:19;;;;;;;812.42;41.72;;;3.90;76.70;;;-1.42;100.00;96707.34;4935010;29;20386;-55
2023/12/19 05:20:45;;;;;;;406.65;24.95;;;3.90;76.80;;;-1.42;100.00;96701.31;4938458;28;20058;-54
2023/12/19 05:23:11;;;;;;;676.28;39.17;;;3.90;76.80;;;-1.44;100.00;96696.28;4935146;29;20019;-53
2023/12/19 05:25:37;;;;;;;399.60;24.90;;;3.90;76.70;;;-1.39;100.00;96701.00;4933517;29;20015;-52
2023/12/19 05:28:04;;;;;;;395.95;25.83;;;3.90;76.70;;;-1.46;100.00;96700.81;4934939;29;20022;-55
2023/12/19 05:30:29;;;;;;;662.28;34.30;;;3.90;76.70;;;-1.45;100.00;96693.81;4935198;29;20114;-55
2023/12/19 05:32:55;;;;;;;470.33;31.23;;;3.90;76.60;;;-1.44;100.00;96688.44;4934113;29;20105;-52
2023/12/19 05:35:21;;;;;;;387.50;25.95;;;3.90;76.60;;;-1.41;100.00;96690.72;4934658;29;20034;-53
2023/12/19 05:37:47;;;;;;;660.85;37.78;;;3.90;76.60;;;-1.41;100.00;96698.56;4933885;29;20367;-56
2023/12/19 05:40:13;;;;;;;402.00;25.00;;;3.90;76.60;;;-1.39;100.00;96690.53;4937402;28;20166;-52
2023/12/19 05:42:39;;;;;;;944.08;53.35;;;3.90;76.60;;;-1.42;100.00;96689.06;4934878;29;20370;-50
2023/12/19 05:45:07;;;;;;;218.73;17.75;;;3.90;76.60;;;-1.45;100.00;96693.81;4933098;28;20031;-50
2023/12/19 05:47:33;;;;;;;371.70;25.38;;;3.90;76.60;;;-1.44;100.00;96698.88;4934258;29;20031;-50
2023/12/19 05:49:58;;;;;;;555.08;31.42;;;3.90;76.60;;;-1.48;100.00;96684.47;4933687;28;20034;-50
2023/12/19 05:52:24;;;;;;;254.63;18.60;;;3.90;76.50;;;-1.49;100.00;96698.53;4934522;29;20031;-54
2023/12/19 05:54:50;;;;;;;395.77;25.92;;;3.90;76.40;;;-1.54;100.00;96694.78;4934456;28;20121;-54
2023/12/19 05:57:16;;;;;;;352.85;22.20;;;3.90;76.30;;;-1.59;100.00;96691.84;4933549;28;20099;-54
2023/12/19 05:59:42;;;;;;;226.15;17.08;;;3.80;76.20;;;-1.61;100.00;96694.59;4934704;29;20058;-51
2023/12/19 06:02:07;;;;;;;465.73;29.33;;;3.80;76.30;;;-1.59;100.00;96702.28;4937276;28;20038;-51
2023/12/19 06:04:36;;;;;;;555.45;34.22;;;3.70;76.20;;;-1.63;100.00;96705.22;4934662;29;20114;-50
2023/12/19 06:07:03;;;;;;;680.72;38.17;;;3.80;76.30;;;-1.65;100.00;96694.09;4933964;29;20030;-55
2023/12/19 06:09:31;;;;;;;552.08;33.55;;;3.70;76.30;;;-1.67;100.00;96701.28;4933402;28;20051;-54
2023/12/19 06:11:58;;;;;;;598.47;34.30;;;3.70;76.40;;;-1.69;100.00;96705.88;4935878;28;20042;-53
2023/12/19 06:14:23;;;;;;;230.73;18.75;;;3.70;76.40;;;-1.68;100.00;96707.50;4937550;28;20046;-51
2023/12/19 06:16:49;;;;;;;154.93;15.13;;;3.60;76.30;;;-1.69;100.00;96712.91;4933476;29;20030;-55
2023/12/19 06:19:15;;;;;;;313.40;20.73;;;3.60;76.30;;;-1.69;100.00;96711.09;4933579;29;20015;-54
2023/12/19 06:21:41;;;;;;;369.83;22.23;;;3.60;76.30;;;-1.77;100.00;96703.22;4933680;28;20031;-56
2023/12/19 06:24:08;;;;;;;481.17;33.85;;;3.50;77.00;;;-1.78;100.00;96701.59;4931745;29;20023;-52
2023/12/19 06:26:34;;;;;;;484.50;30.40;;;3.60;76.40;;;-1.75;100.00;96692.63;4936067;28;20506;-55
2023/12/19 06:29:00;;;;;;;329.30;21.73;;;3.60;76.50;;;-1.73;100.00;96695.88;4933907;29;20053;-50
2023/12/19 06:31:26;;;;;;;476.90;27.38;;;3.60;76.50;;;-1.80;100.00;96693.09;4931451;28;20042;-54
2023/12/19 06:33:52;;;;;;;432.75;25.58;;;3.50;76.50;;;-1.86;100.00;96691.13;4933610;28;20398;-50
2023/12/19 06:36:31;;;;;;;512.88;28.33;;;3.60;76.50;;;-1.87;100.00;96694.72;4933274;28;20023;-54
2023/12/19 06:38:58;;;;;;;629.50;31.15;;;3.50;76.40;;;-1.85;100.00;96695.34;4931097;28;20037;-51
2023/12/19 06:41:24;;;;;;;510.20;27.65;;;3.50;76.50;;;-1.88;100.00;96690.44;4933661;29;20039;-54
2023/12/19 06:43:49;;;;;;;328.05;18.02;;;3.50;76.60;;;-1.83;100.00;96685.56;4933136;28;20058;-55
2023/12/19 06:46:19;;;;;;;377.58;21.10;;;3.50;76.60;;;-1.79;100.00;96696.53;4949082;28;20390;-54
2023/12/19 06:48:45;;;;;;;563.10;30.80;;;3.50;76.60;;;-1.78;100.00;96692.94;4936433;28;20117;-56
2023/12/19 06:51:26;;;;;;;255.90;18.80;;;3.50;76.60;;;-1.77;100.00;96690.16;4937386;28;20035;-51
2023/12/19 06:53:57;;;;;;;302.25;19.30;;;3.50;76.70;;;-1.76;100.00;96691.78;4933626;29;20065;-56
2023/12/19 06:56:27;;;;;;;275.20;21.30;;;3.50;76.70;;;-1.71;100.00;96688.72;4932371;29;20090;-50
2023/12/19 06:58:53;;;;;;;414.58;26.70;;;3.50;76.80;;;-1.71;100.00;96686.91;4933589;29;20054;-51
2023/12/19 07:01:19;;;;;;;537.38;32.13;;;3.50;76.90;;;-1.73;100.00;96686.25;4937307;28;20023;-54
2023/12/19 07:03:45;;;;;;;807.95;50.97;;;3.50;76.70;;;-1.70;100.00;96680.69;4933269;29;20386;-56
2023/12/19 07:06:15;;;;;;;508.55;34.97;;;3.50;76.80;;;-1.68;100.00;96683.16;4934891;28;20474;-56
2023/12/19 07:08:42;;;;;;;576.05;33.78;;;3.60;76.90;;;-1.68;100.00;96681.38;4935503;28;20015;-53
2023/12/19 07:11:09;;;;;;;599.53;34.25;;;3.60;76.90;;;-1.65;100.00;96681.03;4933866;28;20189;-56
2023/12/19 07:13:35;;;;;;;327.20;21.63;;;3.60;76.90;;;-1.66;100.00;96673.34;4932010;29;20113;-50
2023/12/19 07:16:06;;;;;;;709.65;38.83;;;3.60;76.90;;;-1.68;100.00;96673.53;4932497;29;20047;-52
2023/12/19 07:18:32;;;;;;;446.90;27.05;;;3.60;76.80;;;-1.73;100.00;96670.56;4931500;28;20057;-55
2023/12/19 07:20:58;;;;;;;437.00;27.00;;;3.60;76.70;;;-1.68;100.00;96668.31;4940147;28;20018;-52
2023/12/19 07:23:25;;;;;;;366.23;24.33;;;3.60;76.70;;;-1.65;100.00;96661.94;4932848;29;20027;-52
2023/12/19 07:25:51;;;;;;;558.40;30.95;;;3.60;76.70;;;-1.67;100.00;96656.88;4938560;28;20031;-54
2023/12/19 07:28:17;;;;;;;513.15;30.77;;;3.60;76.70;;;-1.68;100.00;96659.66;4934871;28;20489;-51
2023/12/19 07:30:43;;;;;;;226.77;18.67;;;3.60;76.80;;;-1.65;100.00;96659.31;4938537;28;20085;-51
2023/12/19 07:33:09;;;;;;;790.00;45.45;;;3.60;76.70;;;-1.63;100.00;96657.34;4931773;29;20031;-50
2023/12/19 07:35:35;;;;;;;301.80;20.23;;;3.70;76.80;;;-1.65;100.00;96649.69;4939270;28;20026;-55
2023/12/19 07:38:01;;;;;;;362.70;23.05;;;3.70;76.70;;;-1.66;100.00;96649.84;4928655;28;20075;-55
2023/12/19 07:40:26;;;;;;;402.70;22.83;;;3.70;76.60;;;-1.63;100.00;96647.75;4934011;28;20026;-53
2023/12/19 07:42:53;;;;;;;258.38;18.63;;;3.70;76.50;;;-1.64;100.00;96633.03;4932405;29;20422;-53
2023/12/19 07:45:19;;;;;;;604.85;36.90;;;3.70;76.50;;;-1.73;100.00;96633.19;4927678;29;20027;-54
2023/12/19 07:47:45;;;;;;;579.13;33.03;;;3.70;76.50;;;-1.69;100.00;96627.50;4935622;28;20022;-54
2023/12/19 07:50:10;;;;;;;302.65;20.38;;;3.70;76.50;;;-1.65;100.00;96626.16;4931280;29;20507;-55
2023/12/19 07:52:36;;;;;;;333.65;20.10;;;3.80;76.60;;;-1.64;100.00;96622.56;4931662;29;20011;-50
2023/12/19 07:55:04;;;;;;;169.98;15.27;;;3.80;76.50;;;-1.58;100.00;96621.09;4939463;28;20335;-52
2023/12/19 07:57:30;;;;;;;411.75;27.75;;;3.80;76.60;;;-1.54;100.00;96621.59;4936629;28;20030;-54
2023/12/19 07:59:56;;;;;;;316.50;21.63;;;3.90;76.60;;;-1.48;100.00;96615.72;4945362;28;20069;-54
2023/12/19 08:02:23;;;;;;;629.65;29.75;;;3.90;76.60;;;-1.42;100.00;96613.25;4941197;28;20110;-54
2023/12/19 08:04:49;;;;;;;382.55;23.23;;;4.00;76.70;;;-1.34;100.00;96611.66;4958154;28;20076;-51
2023/12/19 08:07:15;;;;;;;360.50;22.02;;;4.10;76.70;;;-1.30;100.00;96626.00;4942320;28;20121;-54
2023/12/19 08:09:40;;;;;;;442.27;27.85;;;4.10;76.70;;;-1.27;100.00;96625.69;4931234;28;20035;-53
2023/12/19 08:12:06;;;;;;;309.95;22.13;;;4.20;76.70;;;-1.23;100.00;96617.31;4934536;28;20027;-52
2023/12/19 08:14:32;;;;;;;278.35;21.45;;;4.20;76.70;;;-1.13;100.00;96617.16;4931477;29;20137;-50
2023/12/19 08:16:58;;;;;;;513.10;31.48;;;4.30;76.70;;;-1.09;100.00;96610.63;4931907;29;20074;-50
2023/12/19 08:19:24;;;;;;;672.88;42.13;;;4.40;76.70;;;-1.02;100.00;96602.94;4931676;28;20203;-50
2023/12/19 08:21:55;;;;;;;418.58;24.70;;;4.50;76.70;;;-1.02;100.00;96595.88;4932229;29;20438;-52
2023/12/19 08:24:21;;;;;;;558.50;32.70;;;4.60;76.70;;;-0.99;100.00;96592.94;4932307;29;20023;-50
2023/12/19 08:26:52;;;;;;;208.93;16.98;;;4.60;76.50;;;-0.91;100.00;96599.13;4932957;29;20035;-54
2023/12/19 08:29:18;;;;;;;454.80;28.73;;;4.70;76.40;;;-0.86;100.00;96596.84;4932291;28;20024;-54
2023/12/19 08:31:46;;;;;;;246.43;19.35;;;4.70;76.40;;;-0.80;100.00;96596.97;4933015;29;20089;-50
2023/12/19 08:34:15;;;;;;;267.33;20.27;;;4.80;76.40;;;-0.75;100.00;96612.19;4932093;29;20479;-55
2023/12/19 08:36:41;;;;;;;586.08;35.25;;;4.80;76.40;;;-0.72;100.00;96606.63;4931853;29;20054;-54
2023/12/19 08:39:08;;;;;;;367.73;24.67;;;4.90;76.40;;;-0.66;100.00;96607.72;4930881;29;20039;-50
2023/12/19 08:41:34;;;;;;;248.68;18.77;;;4.90;76.40;;;-0.64;100.00;96605.75;4931864;28;20035;-56
2023/12/19 08:44:00;;;;;;;399.88;25.38;;;5.00;76.30;;;-0.62;100.00;96598.56;4936351;29;20050;-55
2023/12/19 08:46:26;;;;;;;353.80;23.27;;;5.00;76.20;;;-0.58;100.00;96592.00;4931654;28;20125;-50
2023/12/19 08:48:51;;;;;;;367.77;26.00;;;5.10;76.20;;;-0.60;100.00;96600.00;4932291;29;20027;-52
2023/12/19 08:51:17;;;;;;;309.88;23.63;;;5.10;76.10;;;-0.65;100.00;96604.13;4926224;29;20132;-54
2023/12/19 08:53:44;;;;;;;562.55;37.83;;;5.20;76.00;;;-0.60;100.00;96591.34;4932011;29;20078;-52
2023/12/19 08:56:10;;;;;;;338.58;26.67;;;5.20;75.90;;;-0.53;100.00;96587.06;4930144;29;20487;-49
2023/12/19 08:58:36;;;;;;;137.48;18.20;;;5.20;75.80;;;-0.46;100.00;96585.41;4932147;29;20027;-49
2023/12/19 09:01:02;;;;;;;195.77;19.02;;;5.30;75.80;;;-0.39;100.00;96575.06;4931847;29;20114;-51
2023/12/19 09:03:27;;;;;;;249.98;21.38;;;5.30;75.80;;;-0.42;100.00;96576.22;4931072;29;20073;-50
2023/12/19 09:05:53;;;;;;;147.40;18.10;;;5.40;76.10;;;-0.37;100.00;96589.63;4931475;29;20426;-50
2023/12/19 09:08:19;;;;;;;111.78;17.70;;;5.40;75.60;;;-0.35;100.00;96599.91;4931175;28;20030;-49
2023/12/19 09:10:46;;;;;;;82.93;14.32;;;5.50;75.70;;;-0.32;100.00;96600.38;4931469;29;20038;-50
2023/12/19 09:13:11;;;;;;;96.97;16.63;;;5.50;75.60;;;-0.27;100.00;96592.81;4932051;29;20110;-51
2023/12/19 09:15:37;;;;;;;53.85;14.25;;;5.60;75.60;;;-0.26;100.00;96596.25;4930581;29;20122;-49
2023/12/19 09:18:04;;;;;;;40.28;14.52;;;5.60;75.50;;;-0.22;100.00;96597.53;4931979;29;20019;-51
2023/12/19 09:20:30;;;;;;;34.22;12.77;;;5.70;75.50;;;-0.17;100.00;96597.03;4932122;29;20035;-55
2023/12/19 09:22:56;;;;;;;36.63;14.38;;;5.70;75.30;;;-0.21;100.00;96607.03;4935569;29;20073;-50
2023/12/19 09:25:22;;;;;;;98.82;17.00;;;5.70;75.10;;;-0.11;100.00;96614.69;4933367;29;20121;-50
2023/12/19 09:27:48;;;;;;;37.63;14.30;;;5.80;75.20;;;-0.10;100.00;96609.25;4935479;29;20106;-53
2023/12/19 09:30:16;;;;;;;56.90;14.27;;;5.80;75.10;;;-0.06;100.00;96605.31;4934994;29;20118;-49
2023/12/19 09:32:43;;;;;;;38.13;14.90;;;5.80;75.00;;;0.00;100.00;96603.81;4939685;28;20398;-51
2023/12/19 09:35:12;;;;;;;37.42;14.85;;;5.90;75.20;;;0.03;100.00;96594.78;4935216;28;20042;-51
2023/12/19 09:37:38;;;;;;;35.67;14.18;;;6.00;75.30;;;0.09;100.00;96594.88;4934218;29;20053;-52
2023/12/19 09:40:13;;;;;;;28.30;13.43;;;6.00;75.30;;;0.15;100.00;96591.56;4939783;28;20097;-49
2023/12/19 09:42:39;;;;;;;37.33;13.77;;;6.00;75.20;;;0.19;100.00;96584.22;4935144;29;20057;-51
2023/12/19 09:45:07;;;;;;;31.70;13.63;;;6.10;75.10;;;0.26;100.00;96582.50;4948218;28;20031;-49
2023/12/19 09:47:42;;;;;;;37.22;15.05;;;6.20;75.10;;;0.37;100.00;96583.88;4934749;29;20019;-49
2023/12/19 09:50:13;;;;;;;33.30;15.27;;;6.40;76.10;;;0.48;100.00;96575.63;4933777;28;20035;-49
2023/12/19 09:52:42;;;;;;;37.20;15.15;;;6.70;75.40;;;0.71;100.00;96578.19;4934834;29;20082;-50
2023/12/19 09:55:10;;;;;;;34.30;15.73;;;7.00;75.60;;;0.98;100.00;96578.59;4933118;29;20023;-51
2023/12/19 09:57:37;;;;;;;38.33;17.00;;;7.40;75.90;;;1.21;100.00;96571.44;4934521;28;20055;-49
2023/12/19 10:00:08;;;;;;;30.02;15.30;;;7.80;76.00;;;1.51;100.00;96574.06;4934989;28;20112;-50